메인 페이지
METAR-TAF:

METAR-TAF

공항 :

시카고, 일리노이, 미국

시카고 오헤어 국제공항

위도: 41-58-47N, 경도: 087-54-16W, 고도: 203m

현재 날씨관측

예보는 53분 전, 09:51시(UTC)에 발표되었습니다.
16kt
온도 7°C
습도 57%
기압 1018 hPa
시정: 16.1km
고도 3400ft 상공 구름 조금
고도 25000ft 상공 흐림

METAR: KORD 250951Z 01016KT 10SM FEW034 OVC250 07/M01 A3005 RMK AO2 SLP178 T00671011

시각: 05:44 (10:44 UTC)

예보

예보는 1 시간 45분 전, 08:59시(UTC)에 발표되었습니다.
예보 대상 시간: 25일 09시부터 26일 12시까지 (UTC)
북북동17kt, 순간 최대 풍속 26kt
시정: 10km
고도 3500ft 상공 구름 많음
고도 10000ft 상공 구름 많음
25일 1000시부터 (UTC)
북북동16kt, 순간 최대 풍속 25kt
시정: 10km
고도 3500ft 상공 구름 보통
고도 10000ft 상공 구름 많음
25일 1300시부터 (UTC)
북북동13kt, 순간 최대 풍속 21kt
시정: 10km
고도 4000ft 상공 구름 조금
고도 25000ft 상공 구름 보통
25일 2200시부터 (UTC)
북북동12kt
시정: 10km
맑음
26일 0400시부터 (UTC)
북북서5kt
시정: 10km
맑음

TAF: KORD 250859Z 2509/2612 02017G26KT P6SM BKN035 BKN100 FM251000 02016G25KT P6SM SCT035 BKN100 FM251300 03013G21KT P6SM FEW040 SCT250 FM252200 03012KT P6SM SKC FM260400 34005KT P6SM SKC

4,000개 이상의 공항 관측 자료 및 예보 (METAR 및 TAF 보고).

지도상에서 검색 가능한 기상관측소가 노란 점과 빨간 점으로 표시되어 있습니다.

기상관측소 명을 보려면 표시 위로 마우스를 이동하세요.

날씨 관측과 예보를 보려면 클릭하세요.

지도 변경 : 확대하려면 엑스 표시가 있는 녹색 버튼, 축소하려면 빼기 표시가 있는 녹색 버튼, 다음 페이지의 지도를 보려면 녹색 화살표를 클릭하세요.


METAR-TAF: